createdAt,value
2018-04-29T00:00:42.615Z,29.90
2018-04-29T00:03:10.091Z,29.70
2018-04-29T00:05:37.609Z,29.70
2018-04-29T00:08:05.072Z,29.70
2018-04-29T00:10:32.537Z,29.70
2018-04-29T00:13:00.150Z,29.70
2018-04-29T00:15:27.659Z,29.70
2018-04-29T00:17:55.288Z,29.70
2018-04-29T00:20:22.752Z,29.70
2018-04-29T00:22:50.229Z,29.70
2018-04-29T00:25:17.706Z,29.70
2018-04-29T00:27:45.167Z,29.60
2018-04-29T00:30:12.721Z,29.60
2018-04-29T00:32:40.200Z,29.70
2018-04-29T00:35:07.696Z,29.70
2018-04-29T00:37:35.220Z,29.70
2018-04-29T00:40:03.475Z,29.60
2018-04-29T00:42:30.973Z,29.60
2018-04-29T00:44:58.493Z,29.70
2018-04-29T00:47:26.733Z,29.60
2018-04-29T00:49:54.243Z,29.60
2018-04-29T00:52:22.501Z,29.70
2018-04-29T00:54:49.978Z,29.70
2018-04-29T00:57:18.239Z,29.70
2018-04-29T00:59:45.697Z,29.60
2018-04-29T01:02:13.193Z,29.60
2018-04-29T01:04:40.774Z,29.60
2018-04-29T01:07:08.293Z,29.60
2018-04-29T01:09:36.569Z,29.60
2018-04-29T01:12:04.811Z,29.60
2018-04-29T01:14:32.333Z,29.60
2018-04-29T01:16:59.837Z,29.70
2018-04-29T01:19:27.423Z,29.60
2018-04-29T01:21:55.697Z,29.60
2018-04-29T01:24:23.980Z,29.70
2018-04-29T01:26:51.483Z,29.60
2018-04-29T01:29:19.001Z,29.70
2018-04-29T01:31:46.489Z,29.70
2018-04-29T01:34:14.037Z,29.70
2018-04-29T01:36:41.549Z,29.70
2018-04-29T01:39:09.008Z,29.60
2018-04-29T01:41:36.495Z,29.70
2018-04-29T01:44:04.002Z,29.70
2018-04-29T01:46:32.247Z,29.70
2018-04-29T01:48:59.749Z,29.60
2018-04-29T01:51:27.235Z,29.60
2018-04-29T01:53:55.481Z,29.60
2018-04-29T01:56:23.089Z,29.60
2018-04-29T01:58:50.597Z,29.70
2018-04-29T02:01:18.094Z,29.60
2018-04-29T02:03:45.630Z,29.60
2018-04-29T02:06:13.150Z,29.60
2018-04-29T02:08:40.662Z,29.10
2018-04-29T02:11:08.927Z,29.60
2018-04-29T02:13:36.440Z,29.60
2018-04-29T02:16:04.752Z,29.60
2018-04-29T02:18:32.275Z,29.60
2018-04-29T02:20:59.770Z,30.00
2018-04-29T02:23:27.356Z,29.60
2018-04-29T02:25:55.590Z,29.60
2018-04-29T02:28:23.896Z,29.60
2018-04-29T02:30:52.151Z,29.60
2018-04-29T02:33:19.643Z,29.60
2018-04-29T02:35:47.902Z,29.60
2018-04-29T02:38:16.171Z,29.70
2018-04-29T02:40:43.670Z,29.60
2018-04-29T02:43:11.201Z,29.60
2018-04-29T02:45:39.479Z,29.60
2018-04-29T02:48:07.730Z,29.60
2018-04-29T02:50:35.198Z,29.60
2018-04-29T02:53:02.717Z,29.60
2018-04-29T02:55:30.197Z,29.60
2018-04-29T02:57:57.797Z,29.60
2018-04-29T03:00:26.071Z,29.60
2018-04-29T03:02:54.363Z,29.60
2018-04-29T03:05:21.858Z,29.60
2018-04-29T03:07:49.322Z,29.60
2018-04-29T03:10:16.929Z,29.60
2018-04-29T03:12:44.400Z,29.60
2018-04-29T03:15:11.944Z,29.60
2018-04-29T03:17:39.414Z,29.60
2018-04-29T03:20:06.927Z,29.60
2018-04-29T03:22:34.515Z,29.60
2018-04-29T03:25:01.999Z,29.60
2018-04-29T03:27:29.499Z,29.60
2018-04-29T03:29:57.080Z,29.60
2018-04-29T03:32:25.377Z,29.60
2018-04-29T03:34:52.882Z,29.60
2018-04-29T03:37:21.126Z,29.60
2018-04-29T03:39:48.659Z,29.60
2018-04-29T03:42:16.919Z,29.60
2018-04-29T03:44:44.435Z,29.60
2018-04-29T03:47:11.928Z,29.60
2018-04-29T03:49:39.494Z,29.60
2018-04-29T03:52:06.957Z,29.60
2018-04-29T03:54:35.227Z,29.60
2018-04-29T03:57:15.362Z,29.60
2018-04-29T03:59:54.711Z,29.60
2018-04-29T04:02:34.166Z,29.60
2018-04-29T04:05:02.399Z,29.60
2018-04-29T04:07:30.005Z,29.50
2018-04-29T04:09:58.264Z,29.60
2018-04-29T04:12:25.776Z,29.60
2018-04-29T04:14:53.255Z,29.60
2018-04-29T04:17:20.754Z,29.60
2018-04-29T04:19:49.048Z,29.60
2018-04-29T04:22:16.533Z,29.60
2018-04-29T04:24:44.015Z,29.60
2018-04-29T04:27:11.778Z,29.60
2018-04-29T04:29:39.311Z,29.60
2018-04-29T04:32:06.792Z,29.60
2018-04-29T04:34:34.439Z,30.00
2018-04-29T04:37:02.052Z,29.60
2018-04-29T04:39:30.337Z,29.60
2018-04-29T04:41:58.588Z,29.60
2018-04-29T04:44:26.099Z,29.60
2018-04-29T04:46:53.589Z,29.60
2018-04-29T04:49:21.063Z,29.60
2018-04-29T04:51:49.355Z,29.60
2018-04-29T04:54:17.618Z,29.60
2018-04-29T04:56:45.149Z,29.60
2018-04-29T04:59:12.629Z,29.60
2018-04-29T05:01:40.103Z,29.60
2018-04-29T05:04:08.403Z,29.60
2018-04-29T05:06:35.865Z,29.60
2018-04-29T05:09:03.344Z,29.60
2018-04-29T05:11:30.987Z,29.60
2018-04-29T05:13:58.469Z,29.60
2018-04-29T05:16:25.945Z,29.60
2018-04-29T05:18:54.208Z,30.00
2018-04-29T05:21:21.717Z,29.60
2018-04-29T05:23:49.238Z,29.60
2018-04-29T05:26:17.543Z,29.60
2018-04-29T05:28:45.788Z,29.60
2018-04-29T05:31:13.309Z,29.60
2018-04-29T05:33:40.816Z,29.60
2018-04-29T05:36:08.295Z,29.60
2018-04-29T05:38:36.681Z,29.60
2018-04-29T05:41:04.194Z,29.60
2018-04-29T05:43:31.675Z,29.60
2018-04-29T05:45:59.936Z,29.70
2018-04-29T05:48:27.407Z,29.60
2018-04-29T05:50:54.903Z,29.60
2018-04-29T05:53:22.370Z,29.60
2018-04-29T05:55:49.890Z,29.60
2018-04-29T05:58:18.159Z,29.60
2018-04-29T06:00:46.475Z,29.60
2018-04-29T06:03:14.019Z,29.60
2018-04-29T06:05:41.495Z,29.60
2018-04-29T06:08:09.021Z,29.60
2018-04-29T06:10:37.250Z,29.60
2018-04-29T06:13:04.755Z,29.60
2018-04-29T06:15:33.087Z,29.60
2018-04-29T06:18:00.571Z,29.70
2018-04-29T06:20:28.107Z,29.60
2018-04-29T06:22:55.593Z,29.70
2018-04-29T06:25:23.098Z,29.60
2018-04-29T06:27:50.599Z,30.20
2018-04-29T06:30:18.100Z,29.70
2018-04-29T06:32:45.650Z,29.60
2018-04-29T06:35:13.907Z,29.70
2018-04-29T06:37:42.187Z,29.70
2018-04-29T06:40:10.432Z,29.70
2018-04-29T06:42:37.910Z,29.70
2018-04-29T06:45:06.179Z,29.70
2018-04-29T06:47:33.751Z,29.90
2018-04-29T06:50:01.251Z,29.70
2018-04-29T06:52:28.764Z,29.70
2018-04-29T06:54:56.285Z,29.70
2018-04-29T06:57:23.827Z,29.90
2018-04-29T06:59:51.315Z,29.70
2018-04-29T07:02:18.801Z,29.90
2018-04-29T07:04:46.409Z,29.70
2018-04-29T07:07:14.417Z,29.70
2018-04-29T07:09:41.998Z,29.70
2018-04-29T07:12:10.237Z,29.80
2018-04-29T07:14:37.847Z,29.80
2018-04-29T07:17:05.383Z,30.00
2018-04-29T07:19:33.628Z,29.70
2018-04-29T07:22:01.120Z,29.80
2018-04-29T07:24:28.673Z,29.70
2018-04-29T07:26:56.182Z,29.80
2018-04-29T07:29:23.721Z,29.70
2018-04-29T07:31:51.232Z,29.70
2018-04-29T07:34:18.722Z,29.70
2018-04-29T07:36:46.987Z,29.80
2018-04-29T07:39:14.508Z,29.70
2018-04-29T07:41:42.252Z,30.00
2018-04-29T07:44:09.823Z,29.80
2018-04-29T07:46:37.308Z,29.70
2018-04-29T07:49:04.792Z,29.80
2018-04-29T07:51:33.029Z,29.80
2018-04-29T07:54:00.538Z,29.80
2018-04-29T07:56:28.790Z,29.80
2018-04-29T07:58:56.262Z,29.80
2018-04-29T08:01:24.550Z,29.80
2018-04-29T08:03:52.808Z,29.80
2018-04-29T08:06:20.366Z,29.80
2018-04-29T08:08:47.912Z,29.80
2018-04-29T08:11:16.202Z,29.80
2018-04-29T08:13:43.673Z,29.80
2018-04-29T08:16:11.946Z,29.80
2018-04-29T08:18:40.280Z,29.80
2018-04-29T08:21:07.908Z,29.80
2018-04-29T08:23:35.417Z,29.80
2018-04-29T08:26:02.908Z,29.80
2018-04-29T08:28:31.200Z,29.80
2018-04-29T08:30:58.690Z,29.80
2018-04-29T08:33:26.279Z,29.80
2018-04-29T08:35:54.560Z,29.80
2018-04-29T08:38:22.092Z,29.80
2018-04-29T08:40:49.595Z,29.80
2018-04-29T08:43:18.032Z,29.80
2018-04-29T08:45:45.560Z,29.80
2018-04-29T08:48:13.029Z,29.80
2018-04-29T08:50:40.495Z,29.80
2018-04-29T08:53:08.020Z,29.80
2018-04-29T08:55:35.487Z,29.80
2018-04-29T08:58:02.996Z,29.80
2018-04-29T09:00:31.273Z,29.90
2018-04-29T09:02:58.751Z,29.90
2018-04-29T09:05:27.004Z,29.80
2018-04-29T09:07:54.497Z,29.80
2018-04-29T09:10:22.000Z,29.80
2018-04-29T09:12:49.493Z,29.80
2018-04-29T09:15:17.765Z,30.00
2018-04-29T09:17:45.257Z,29.80
2018-04-29T09:20:12.778Z,29.80
2018-04-29T09:22:41.033Z,29.80
2018-04-29T09:25:08.556Z,29.80
2018-04-29T09:27:36.041Z,29.90
2018-04-29T09:30:03.553Z,29.80
2018-04-29T09:32:31.847Z,29.80
2018-04-29T09:34:59.379Z,29.80
2018-04-29T09:37:27.670Z,29.80
2018-04-29T09:39:55.142Z,29.80
2018-04-29T09:42:22.635Z,29.80
2018-04-29T09:47:12.361Z,29.80
2018-04-29T09:49:40.617Z,29.90
2018-04-29T09:52:08.108Z,29.80
2018-04-29T09:54:35.615Z,29.80
2018-04-29T09:57:03.122Z,29.90
2018-04-29T09:59:31.500Z,29.90
2018-04-29T10:02:02.562Z,29.90
2018-04-29T10:04:30.059Z,29.90
2018-04-29T10:06:57.541Z,29.90
2018-04-29T10:09:25.843Z,29.90
2018-04-29T10:11:53.369Z,29.80
2018-04-29T10:14:20.947Z,29.90
2018-04-29T10:16:49.206Z,29.90
2018-04-29T10:19:16.806Z,29.90
2018-04-29T10:21:44.289Z,29.90
2018-04-29T10:24:11.837Z,29.90
2018-04-29T10:26:39.367Z,29.90
2018-04-29T10:29:06.934Z,29.90
2018-04-29T10:31:34.477Z,29.90
2018-04-29T10:34:01.981Z,29.90
2018-04-29T10:36:29.453Z,29.90
2018-04-29T10:38:56.977Z,29.90
2018-04-29T10:41:24.473Z,29.90
2018-04-29T10:43:52.098Z,30.40
2018-04-29T10:46:19.601Z,29.90
2018-04-29T10:48:47.110Z,29.90
2018-04-29T10:51:14.631Z,29.90
2018-04-29T10:53:42.143Z,29.90
2018-04-29T10:56:09.655Z,29.90
2018-04-29T10:58:37.161Z,29.90
2018-04-29T11:01:04.657Z,29.90
2018-04-29T11:03:32.152Z,29.90
2018-04-29T11:05:59.655Z,29.90
2018-04-29T11:08:27.141Z,29.90
2018-04-29T11:10:55.371Z,30.00
2018-04-29T11:13:22.874Z,29.90
2018-04-29T11:15:50.354Z,30.00
2018-04-29T11:18:18.069Z,29.90
2018-04-29T11:20:45.572Z,29.90
2018-04-29T11:23:13.809Z,29.90
2018-04-29T11:25:41.311Z,29.90
2018-04-29T11:28:08.826Z,29.90
2018-04-29T11:30:36.495Z,29.90
2018-04-29T11:33:03.994Z,29.90
2018-04-29T11:35:31.497Z,29.90
2018-04-29T11:37:58.973Z,29.90
2018-04-29T11:40:27.387Z,30.00
2018-04-29T11:42:54.863Z,29.90
2018-04-29T11:45:22.346Z,29.90
2018-04-29T11:47:49.829Z,29.90
2018-04-29T11:50:18.085Z,29.90
2018-04-29T11:52:45.606Z,29.90
2018-04-29T11:55:13.069Z,29.90
2018-04-29T11:57:40.565Z,29.90
2018-04-29T12:00:08.814Z,29.90
2018-04-29T12:02:36.408Z,29.90
2018-04-29T12:05:04.605Z,29.90
2018-04-29T12:07:32.866Z,30.00
2018-04-29T12:10:00.333Z,29.90
2018-04-29T12:12:28.597Z,30.00
2018-04-29T12:14:56.079Z,29.90
2018-04-29T12:17:23.569Z,29.90
2018-04-29T12:19:51.076Z,29.90
2018-04-29T12:22:19.325Z,29.90
2018-04-29T12:24:46.907Z,29.90
2018-04-29T12:27:14.381Z,29.90
2018-04-29T12:29:42.665Z,30.00
2018-04-29T12:32:10.142Z,29.90
2018-04-29T12:34:37.637Z,29.90
2018-04-29T12:37:05.160Z,29.90
2018-04-29T12:39:32.669Z,29.90
2018-04-29T12:42:00.173Z,29.90
2018-04-29T12:44:27.685Z,29.90
2018-04-29T12:46:55.937Z,29.90
2018-04-29T12:49:23.443Z,30.00
2018-04-29T12:51:51.691Z,30.00
2018-04-29T12:54:19.291Z,29.90
2018-04-29T12:56:46.831Z,29.90
2018-04-29T12:59:15.511Z,30.00
2018-04-29T13:01:43.800Z,30.00
2018-04-29T13:04:12.088Z,29.90
2018-04-29T13:06:39.588Z,29.90
2018-04-29T13:09:07.082Z,29.90
2018-04-29T13:11:35.323Z,30.00
2018-04-29T13:14:02.844Z,29.90
2018-04-29T13:16:30.313Z,29.90
2018-04-29T13:18:57.845Z,29.90
2018-04-29T13:21:26.102Z,29.90
2018-04-29T13:23:54.332Z,30.00
2018-04-29T13:26:21.873Z,29.90
2018-04-29T13:28:49.384Z,29.90
2018-04-29T13:31:17.717Z,30.00
2018-04-29T13:33:45.215Z,30.00
2018-04-29T13:36:12.681Z,29.90
2018-04-29T13:38:40.196Z,29.90
2018-04-29T13:41:07.688Z,29.90
2018-04-29T13:43:35.180Z,29.90
2018-04-29T13:46:03.465Z,29.90
2018-04-29T13:48:30.949Z,29.90
2018-04-29T13:50:58.468Z,29.90
2018-04-29T13:53:26.716Z,30.00
2018-04-29T13:55:54.980Z,30.00
2018-04-29T13:58:22.474Z,30.00
2018-04-29T14:00:50.780Z,30.00
2018-04-29T14:03:18.282Z,30.00
2018-04-29T14:05:45.768Z,30.00
2018-04-29T14:08:14.259Z,30.00
2018-04-29T14:10:41.847Z,30.00
2018-04-29T14:13:09.242Z,30.00
2018-04-29T14:15:36.771Z,30.00
2018-04-29T14:18:04.298Z,30.00
2018-04-29T14:20:31.776Z,30.00
2018-04-29T14:22:59.264Z,30.00
2018-04-29T14:25:26.769Z,30.00
2018-04-29T14:27:54.300Z,30.00
2018-04-29T14:30:21.808Z,30.00
2018-04-29T14:32:49.464Z,30.00
2018-04-29T14:35:16.986Z,30.00
2018-04-29T14:37:45.224Z,30.10
2018-04-29T14:40:12.812Z,30.00
2018-04-29T14:42:40.277Z,30.00
2018-04-29T14:45:08.564Z,30.00
2018-04-29T14:47:36.821Z,29.90
2018-04-29T14:50:04.320Z,29.90
2018-04-29T14:52:31.800Z,30.20
2018-04-29T14:54:59.316Z,29.80
2018-04-29T15:00:05.897Z,29.40
2018-04-29T15:02:34.843Z,29.20
2018-04-29T15:05:02.726Z,29.10
2018-04-29T15:07:30.236Z,29.00
2018-04-29T15:09:58.623Z,28.90
2018-04-29T15:12:26.119Z,28.90
2018-04-29T15:14:53.707Z,28.80
2018-04-29T15:17:21.956Z,29.30
2018-04-29T15:19:51.314Z,29.30
2018-04-29T15:22:18.862Z,30.10
2018-04-29T15:24:47.216Z,31.10
2018-04-29T15:27:15.487Z,30.20
2018-04-29T15:29:44.252Z,30.10
2018-04-29T15:32:11.749Z,30.10
2018-04-29T15:34:40.021Z,30.10
2018-04-29T15:37:08.403Z,30.10
2018-04-29T15:39:37.634Z,30.10
2018-04-29T15:42:05.159Z,30.10
2018-04-29T15:44:33.417Z,31.20
2018-04-29T15:47:00.976Z,30.60
2018-04-29T15:49:29.272Z,36.10
2018-04-29T15:51:57.534Z,36.10
2018-04-29T15:54:25.803Z,37.50
2018-04-29T15:56:53.484Z,37.20
2018-04-29T15:59:21.755Z,46.30
2018-04-29T16:01:50.017Z,36.40
2018-04-29T16:04:18.322Z,39.00
2018-04-29T16:06:45.824Z,39.10
2018-04-29T16:09:13.340Z,36.90
2018-04-29T16:11:40.875Z,36.40
2018-04-29T16:14:09.186Z,34.30
2018-04-29T16:16:36.723Z,34.40
2018-04-29T16:19:04.992Z,33.00
2018-04-29T16:21:32.515Z,33.10
2018-04-29T16:24:00.052Z,32.90
2018-04-29T16:26:28.286Z,32.10
2018-04-29T16:28:56.556Z,32.10
2018-04-29T16:31:24.822Z,31.80
2018-04-29T16:33:53.089Z,32.30
2018-04-29T16:36:20.582Z,31.70
2018-04-29T16:38:48.079Z,31.50
2018-04-29T16:41:15.561Z,31.30
2018-04-29T16:43:43.050Z,31.10
2018-04-29T16:46:10.529Z,30.90
2018-04-29T16:48:38.054Z,30.80
2018-04-29T16:51:06.327Z,30.50
2018-04-29T16:53:34.589Z,30.40
2018-04-29T16:56:02.100Z,30.40
2018-04-29T16:58:29.610Z,30.40
2018-04-29T17:00:57.083Z,30.40
2018-04-29T17:03:25.335Z,30.30
2018-04-29T17:05:52.825Z,30.30
2018-04-29T17:08:20.323Z,30.20
2018-04-29T17:10:47.862Z,30.20
2018-04-29T17:13:15.350Z,31.90
2018-04-29T17:15:42.825Z,31.30
2018-04-29T17:18:10.311Z,30.90
2018-04-29T17:20:38.555Z,31.30
2018-04-29T17:23:06.145Z,31.30
2018-04-29T17:25:34.401Z,30.10
2018-04-29T17:28:01.956Z,30.10
2018-04-29T17:30:29.460Z,31.00
2018-04-29T17:32:56.957Z,30.40
2018-04-29T17:35:24.487Z,30.40
2018-04-29T17:37:51.993Z,30.10
2018-04-29T17:40:19.604Z,30.60
2018-04-29T17:42:47.121Z,31.70
2018-04-29T17:45:15.373Z,31.00
2018-04-29T17:47:42.862Z,31.00
2018-04-29T17:50:11.117Z,31.70
2018-04-29T17:52:38.629Z,31.70
2018-04-29T17:55:06.176Z,31.50
2018-04-29T17:57:33.701Z,32.20
2018-04-29T18:00:01.967Z,30.30
2018-04-29T18:02:29.466Z,30.50
2018-04-29T18:04:56.985Z,30.70
2018-04-29T18:07:24.491Z,31.00
2018-04-29T18:09:52.008Z,30.10
2018-04-29T18:12:19.544Z,30.10
2018-04-29T18:14:47.031Z,30.20
2018-04-29T18:17:15.340Z,30.20
2018-04-29T18:19:42.835Z,30.10
2018-04-29T18:22:10.316Z,30.10
2018-04-29T18:24:37.840Z,30.10
2018-04-29T18:27:05.366Z,30.20
2018-04-29T18:29:32.865Z,30.10
2018-04-29T18:32:00.364Z,30.10
2018-04-29T18:34:28.622Z,30.30
2018-04-29T18:36:56.134Z,30.10
2018-04-29T18:39:23.625Z,30.20
2018-04-29T18:41:51.106Z,30.10
2018-04-29T18:44:19.413Z,30.90
2018-04-29T18:46:46.902Z,31.00
2018-04-29T18:49:14.394Z,30.20
2018-04-29T18:51:42.701Z,30.40
2018-04-29T18:54:10.184Z,30.20
2018-04-29T18:56:37.645Z,30.80
2018-04-29T18:59:05.152Z,31.50
2018-04-29T19:01:33.426Z,30.10
2018-04-29T19:04:00.910Z,30.00
2018-04-29T19:06:28.390Z,30.00
2018-04-29T19:08:55.904Z,30.10
2018-04-29T19:11:24.165Z,31.00
2018-04-29T19:13:51.743Z,31.00
2018-04-29T19:16:20.010Z,30.10
2018-04-29T19:18:48.294Z,30.40
2018-04-29T19:21:16.576Z,30.80
2018-04-29T19:23:44.869Z,32.60
2018-04-29T19:26:12.406Z,32.00
2018-04-29T19:28:40.676Z,32.70
2018-04-29T19:31:08.940Z,30.00
2018-04-29T19:33:36.474Z,30.00
2018-04-29T19:36:03.971Z,32.60
2018-04-29T19:38:32.345Z,30.00
2018-04-29T19:40:59.788Z,30.00
2018-04-29T19:43:27.360Z,30.00
2018-04-29T19:45:55.634Z,30.00
2018-04-29T19:48:23.884Z,30.00
2018-04-29T19:50:52.210Z,30.00
2018-04-29T19:53:19.733Z,30.00
2018-04-29T19:55:47.260Z,30.00
2018-04-29T19:58:14.722Z,30.00
2018-04-29T20:00:42.376Z,30.00
2018-04-29T20:03:09.850Z,30.00
2018-04-29T20:05:37.377Z,30.00
2018-04-29T20:08:04.841Z,30.00
2018-04-29T20:10:32.389Z,29.90
2018-04-29T20:12:59.859Z,29.90
2018-04-29T20:15:27.376Z,29.90
2018-04-29T20:17:55.620Z,29.90
2018-04-29T20:20:23.144Z,29.90
2018-04-29T20:22:50.678Z,29.90
2018-04-29T20:25:18.223Z,29.90
2018-04-29T20:27:46.520Z,28.20
2018-04-29T20:30:13.997Z,28.10
2018-04-29T20:32:48.316Z,28.20
2018-04-29T20:35:15.787Z,28.10
2018-04-29T20:37:43.267Z,28.00
2018-04-29T20:40:10.781Z,27.30
2018-04-29T20:42:38.253Z,27.40
2018-04-29T20:45:05.759Z,27.10
2018-04-29T20:47:33.249Z,27.20
2018-04-29T20:50:00.743Z,27.80
2018-04-29T20:52:28.214Z,27.80
2018-04-29T20:54:55.728Z,27.50
2018-04-29T20:57:23.190Z,27.40
2018-04-29T20:59:50.825Z,27.60
2018-04-29T21:02:18.305Z,27.30
2018-04-29T21:04:45.798Z,28.10
2018-04-29T21:07:13.341Z,27.90
2018-04-29T21:09:40.810Z,28.40
2018-04-29T21:12:08.392Z,28.10
2018-04-29T21:14:35.881Z,28.50
2018-04-29T21:17:03.393Z,29.00
2018-04-29T21:19:30.885Z,28.80
2018-04-29T21:21:59.251Z,28.50
2018-04-29T21:24:27.509Z,28.60
2018-04-29T21:26:55.006Z,28.70
2018-04-29T21:29:22.538Z,28.10
2018-04-29T21:31:50.009Z,28.80
2018-04-29T21:34:18.277Z,29.50
2018-04-29T21:36:46.559Z,29.40
2018-04-29T21:39:14.825Z,29.40
2018-04-29T21:41:43.141Z,29.60
2018-04-29T21:44:10.655Z,29.60
2018-04-29T21:46:38.925Z,29.80
2018-04-29T21:49:06.416Z,29.70
2018-04-29T21:51:33.940Z,29.70
2018-04-29T21:54:01.433Z,29.70
2018-04-29T21:56:29.076Z,29.70
2018-04-29T21:58:57.327Z,29.70
2018-04-29T22:01:24.831Z,29.70
2018-04-29T22:03:52.347Z,29.70
2018-04-29T22:06:19.834Z,29.70
2018-04-29T22:08:48.088Z,29.80
2018-04-29T22:11:15.581Z,29.70
2018-04-29T22:13:43.199Z,29.70
2018-04-29T22:16:10.676Z,29.70
2018-04-29T22:18:38.191Z,29.70
2018-04-29T22:21:05.669Z,29.80
2018-04-29T22:23:33.176Z,29.70
2018-04-29T22:26:00.730Z,29.70
2018-04-29T22:28:28.245Z,29.70
2018-04-29T22:30:55.789Z,29.50
2018-04-29T22:33:23.281Z,30.00
2018-04-29T22:35:51.541Z,29.50
2018-04-29T22:38:19.055Z,29.50
2018-04-29T22:40:46.541Z,29.60
2018-04-29T22:43:14.052Z,29.60
2018-04-29T22:45:42.306Z,29.50
2018-04-29T22:48:10.574Z,29.40
2018-04-29T22:50:38.046Z,29.30
2018-04-29T22:53:06.288Z,30.20
2018-04-29T22:55:33.782Z,30.20
2018-04-29T22:58:02.069Z,30.00
2018-04-29T23:00:30.347Z,29.50
2018-04-29T23:02:58.599Z,29.30
2018-04-29T23:05:26.831Z,29.30
2018-04-29T23:07:54.319Z,29.30
2018-04-29T23:10:21.832Z,29.30
2018-04-29T23:12:49.334Z,29.30
2018-04-29T23:15:16.811Z,29.30
2018-04-29T23:17:45.085Z,29.30
2018-04-29T23:20:13.369Z,29.00
2018-04-29T23:22:41.638Z,29.40
2018-04-29T23:25:09.222Z,29.30
2018-04-29T23:27:36.705Z,29.40
2018-04-29T23:30:04.228Z,29.80
2018-04-29T23:32:31.717Z,30.30
2018-04-29T23:34:59.260Z,31.80
2018-04-29T23:37:26.776Z,30.30
2018-04-29T23:39:54.257Z,30.00
2018-04-29T23:42:22.532Z,30.40
2018-04-29T23:44:50.877Z,30.00
2018-04-29T23:47:18.405Z,30.00
2018-04-29T23:49:45.886Z,29.30
2018-04-29T23:52:13.363Z,29.30
2018-04-29T23:54:40.852Z,29.80
2018-04-29T23:57:09.107Z,30.00
2018-04-29T23:59:36.665Z,30.10
